<?xml version="1.0" encoding="UTF-8" standalone="no" ?>
<gpx xmlns="http://www.topografix.com/GPX/1/1" xmlns:xsi="http://www.w3.org/2001/XMLSchema-instance" xsi:schemaLocation="http://www.topografix.com/GPX/1/1 http://www.topografix.com/GPX/1/1/gpx.xsd" version="1.1" creator="VisuGPX - https://www.visugpx.com">
  <metadata>
    <name>Rando LN</name>
  </metadata>
  <trk>
    <name><![CDATA[Mauzac]]></name>
    <extensions>
      <line xmlns="http://www.topografix.com/GPX/gpx_style/0/2">
        <color>00fbff</color>
        <width>4</width>
      </line>
    </extensions>
    <trkseg>
      <trkpt lat="44.79334" lon="0.6494">
        <ele>154.7</ele>
      </trkpt>
      <trkpt lat="44.79334" lon="0.6494">
        <ele>154.7</ele>
      </trkpt>
      <trkpt lat="44.79334" lon="0.6494">
        <ele>154.7</ele>
      </trkpt>
      <trkpt lat="44.79334" lon="0.6494">
        <ele>154.7</ele>
      </trkpt>
      <trkpt lat="44.79334" lon="0.6494">
        <ele>154.7</ele>
      </trkpt>
      <trkpt lat="44.79334" lon="0.6494">
        <ele>154.7</ele>
      </trkpt>
      <trkpt lat="44.79334" lon="0.6494">
        <ele>154.7</ele>
      </trkpt>
      <trkpt lat="44.79334" lon="0.6494">
        <ele>154.7</ele>
      </trkpt>
      <trkpt lat="44.79294" lon="0.64836">
        <ele>156.5</ele>
      </trkpt>
      <trkpt lat="44.79257" lon="0.64796">
        <ele>155.3</ele>
      </trkpt>
      <trkpt lat="44.79209" lon="0.64716">
        <ele>152.3</ele>
      </trkpt>
      <trkpt lat="44.79168" lon="0.64586">
        <ele>153</ele>
      </trkpt>
      <trkpt lat="44.79158" lon="0.64532">
        <ele>154.2</ele>
      </trkpt>
      <trkpt lat="44.79132" lon="0.64464">
        <ele>154.4</ele>
      </trkpt>
      <trkpt lat="44.78983" lon="0.6446">
        <ele>150.9</ele>
      </trkpt>
      <trkpt lat="44.78942" lon="0.64424">
        <ele>151.924</ele>
        <time>2017-03-29T13:58:52Z</time>
      </trkpt>
      <trkpt lat="44.78893" lon="0.64422">
        <ele>149.194</ele>
        <time>2017-03-29T13:59:12Z</time>
      </trkpt>
      <trkpt lat="44.78867" lon="0.64435">
        <ele>146.816</ele>
        <time>2017-03-29T13:59:32Z</time>
      </trkpt>
      <trkpt lat="44.78838" lon="0.64512">
        <ele>142.768</ele>
        <time>2017-03-29T13:59:52Z</time>
      </trkpt>
      <trkpt lat="44.78815" lon="0.64507">
        <ele>144.379</ele>
        <time>2020-11-25T05:10:20Z</time>
      </trkpt>
      <trkpt lat="44.7877" lon="0.64451">
        <ele>150.015</ele>
        <time>2020-11-25T05:10:40Z</time>
      </trkpt>
      <trkpt lat="44.78689" lon="0.64566">
        <ele>150.287</ele>
        <time>2020-11-25T05:11:00Z</time>
      </trkpt>
      <trkpt lat="44.78728" lon="0.64608">
        <ele>148.378</ele>
        <time>2017-03-29T14:01:32Z</time>
      </trkpt>
      <trkpt lat="44.78675" lon="0.64676">
        <ele>146.633</ele>
        <time>2017-03-29T14:01:52Z</time>
      </trkpt>
      <trkpt lat="44.78609" lon="0.64811">
        <ele>144.026</ele>
        <time>2017-03-29T14:02:12Z</time>
      </trkpt>
      <trkpt lat="44.78604" lon="0.64847">
        <ele>144.308</ele>
        <time>2017-03-29T14:02:32Z</time>
      </trkpt>
      <trkpt lat="44.78615" lon="0.64932">
        <ele>141.493</ele>
        <time>2017-03-29T14:02:52Z</time>
      </trkpt>
      <trkpt lat="44.78611" lon="0.64977">
        <ele>143.228</ele>
        <time>2017-03-29T14:03:12Z</time>
      </trkpt>
      <trkpt lat="44.78616" lon="0.65024">
        <ele>143.678</ele>
        <time>2017-03-29T14:03:32Z</time>
      </trkpt>
      <trkpt lat="44.78606" lon="0.6511">
        <ele>146.91</ele>
        <time>2017-03-29T14:03:52Z</time>
      </trkpt>
      <trkpt lat="44.78606" lon="0.65173">
        <ele>148.462</ele>
        <time>2017-03-29T14:04:12Z</time>
      </trkpt>
      <trkpt lat="44.78595" lon="0.65237">
        <ele>150.463</ele>
        <time>2017-03-29T14:04:32Z</time>
      </trkpt>
      <trkpt lat="44.78569" lon="0.6529">
        <ele>150.889</ele>
        <time>2017-03-29T14:04:52Z</time>
      </trkpt>
      <trkpt lat="44.78539" lon="0.65337">
        <ele>152.461</ele>
        <time>2017-03-29T14:05:12Z</time>
      </trkpt>
      <trkpt lat="44.78527" lon="0.65398">
        <ele>151.645</ele>
        <time>2017-03-29T14:05:32Z</time>
      </trkpt>
      <trkpt lat="44.78511" lon="0.65435">
        <ele>150.847</ele>
        <time>2017-03-29T14:05:52Z</time>
      </trkpt>
      <trkpt lat="44.78499" lon="0.65522">
        <ele>152.811</ele>
        <time>2017-03-29T14:06:12Z</time>
      </trkpt>
      <trkpt lat="44.78502" lon="0.65593">
        <ele>152.908</ele>
        <time>2017-03-29T14:06:32Z</time>
      </trkpt>
      <trkpt lat="44.78581" lon="0.65797">
        <ele>145.88</ele>
        <time>2017-03-29T14:06:52Z</time>
      </trkpt>
      <trkpt lat="44.78693" lon="0.65981">
        <ele>130.165</ele>
        <time>2017-03-29T14:07:12Z</time>
      </trkpt>
      <trkpt lat="44.78743" lon="0.66116">
        <ele>125.665</ele>
        <time>2017-03-29T14:07:32Z</time>
      </trkpt>
      <trkpt lat="44.78827" lon="0.66003">
        <ele>119.637</ele>
        <time>2017-03-29T14:07:52Z</time>
      </trkpt>
      <trkpt lat="44.78834" lon="0.65962">
        <ele>117.099</ele>
        <time>2017-03-29T14:08:12Z</time>
      </trkpt>
      <trkpt lat="44.78842" lon="0.65985">
        <ele>117.19</ele>
        <time>2017-03-29T14:08:32Z</time>
      </trkpt>
      <trkpt lat="44.78869" lon="0.65973">
        <ele>114.576</ele>
        <time>2017-03-29T14:08:52Z</time>
      </trkpt>
      <trkpt lat="44.78916" lon="0.65966">
        <ele>110.648</ele>
        <time>2017-03-29T14:09:12Z</time>
      </trkpt>
      <trkpt lat="44.78932" lon="0.65983">
        <ele>111.412</ele>
        <time>2017-03-29T14:09:32Z</time>
      </trkpt>
      <trkpt lat="44.78988" lon="0.66117">
        <ele>107.732</ele>
        <time>2017-03-29T14:09:52Z</time>
      </trkpt>
      <trkpt lat="44.79018" lon="0.66169">
        <ele>108.205</ele>
        <time>2017-03-29T14:10:12Z</time>
      </trkpt>
      <trkpt lat="44.79065" lon="0.66175">
        <ele>101.608</ele>
        <time>2017-03-29T14:10:32Z</time>
      </trkpt>
      <trkpt lat="44.79109" lon="0.66208">
        <ele>101.757</ele>
        <time>2020-03-06T11:28:47Z</time>
      </trkpt>
      <trkpt lat="44.79112" lon="0.66265">
        <ele>101.972</ele>
        <time>2020-03-06T11:29:07Z</time>
      </trkpt>
      <trkpt lat="44.79125" lon="0.66359">
        <ele>101.562</ele>
        <time>2020-03-06T11:29:27Z</time>
      </trkpt>
      <trkpt lat="44.79144" lon="0.6641">
        <ele>97.414</ele>
        <time>2020-03-06T11:29:47Z</time>
      </trkpt>
      <trkpt lat="44.7915" lon="0.66645">
        <ele>102.626</ele>
        <time>2020-03-06T11:30:07Z</time>
      </trkpt>
      <trkpt lat="44.79155" lon="0.66793">
        <ele>100.437</ele>
        <time>2020-03-06T11:30:27Z</time>
      </trkpt>
      <trkpt lat="44.79154" lon="0.66941">
        <ele>94.333</ele>
        <time>2020-03-06T11:30:47Z</time>
      </trkpt>
      <trkpt lat="44.79166" lon="0.67041">
        <ele>93.595</ele>
        <time>2020-03-06T11:31:07Z</time>
      </trkpt>
      <trkpt lat="44.79189" lon="0.67101">
        <ele>95.482</ele>
        <time>2017-03-29T14:12:32Z</time>
      </trkpt>
      <trkpt lat="44.79235" lon="0.67155">
        <ele>96.443</ele>
        <time>2020-03-06T11:31:47Z</time>
      </trkpt>
      <trkpt lat="44.7924" lon="0.67209">
        <ele>91.917</ele>
        <time>2020-03-06T11:32:07Z</time>
      </trkpt>
      <trkpt lat="44.79262" lon="0.67254">
        <ele>89.008</ele>
        <time>2017-03-29T14:13:12Z</time>
      </trkpt>
      <trkpt lat="44.79314" lon="0.67296">
        <ele>92.994</ele>
        <time>2020-03-06T11:32:47Z</time>
      </trkpt>
      <trkpt lat="44.79373" lon="0.67366">
        <ele>88.259</ele>
        <time>2017-03-29T14:13:32Z</time>
      </trkpt>
      <trkpt lat="44.79469" lon="0.67376">
        <ele>93.459</ele>
        <time>2017-03-29T14:13:52Z</time>
      </trkpt>
      <trkpt lat="44.79524" lon="0.67425">
        <ele>85.381</ele>
        <time>2017-03-29T14:14:12Z</time>
      </trkpt>
      <trkpt lat="44.79576" lon="0.67395">
        <ele>82.683</ele>
        <time>2020-03-06T11:34:07Z</time>
      </trkpt>
      <trkpt lat="44.79655" lon="0.67396">
        <ele>85.634</ele>
        <time>2017-03-29T14:15:12Z</time>
      </trkpt>
      <trkpt lat="44.79748" lon="0.67418">
        <ele>83.87</ele>
        <time>2017-03-29T14:15:32Z</time>
      </trkpt>
      <trkpt lat="44.79809" lon="0.67447">
        <ele>80.732</ele>
        <time>2017-03-29T14:15:52Z</time>
      </trkpt>
      <trkpt lat="44.7985" lon="0.67436">
        <ele>83.839</ele>
        <time>2017-03-29T14:16:12Z</time>
      </trkpt>
      <trkpt lat="44.7996" lon="0.67427">
        <ele>90.801</ele>
        <time>2017-03-29T14:16:32Z</time>
      </trkpt>
      <trkpt lat="44.80091" lon="0.67426">
        <ele>84.121</ele>
        <time>2017-03-29T14:16:52Z</time>
      </trkpt>
      <trkpt lat="44.80106" lon="0.67429">
        <ele>84.808</ele>
        <time>2017-03-29T14:17:12Z</time>
      </trkpt>
      <trkpt lat="44.80126" lon="0.67449">
        <ele>82.319</ele>
        <time>2017-03-29T14:17:32Z</time>
      </trkpt>
      <trkpt lat="44.80167" lon="0.67447">
        <ele>86.334</ele>
        <time>2017-03-29T14:17:52Z</time>
      </trkpt>
      <trkpt lat="44.80216" lon="0.67422">
        <ele>89.554</ele>
        <time>2020-03-06T11:37:27Z</time>
      </trkpt>
      <trkpt lat="44.80279" lon="0.67406">
        <ele>91.566</ele>
        <time>2020-03-06T11:37:47Z</time>
      </trkpt>
      <trkpt lat="44.80344" lon="0.6738">
        <ele>89.978</ele>
        <time>2020-03-06T11:38:07Z</time>
      </trkpt>
      <trkpt lat="44.80379" lon="0.67331">
        <ele>97.079</ele>
        <time>2020-03-06T11:38:27Z</time>
      </trkpt>
      <trkpt lat="44.80555" lon="0.67358">
        <ele>96.225</ele>
        <time>2020-03-06T11:38:47Z</time>
      </trkpt>
      <trkpt lat="44.80608" lon="0.67325">
        <ele>91.067</ele>
        <time>2017-03-29T14:19:52Z</time>
      </trkpt>
      <trkpt lat="44.80697" lon="0.67248">
        <ele>100.134</ele>
        <time>2020-03-06T11:39:27Z</time>
      </trkpt>
      <trkpt lat="44.80921" lon="0.67245">
        <ele>95.655</ele>
        <time>2020-03-06T11:39:47Z</time>
      </trkpt>
      <trkpt lat="44.80982" lon="0.67215">
        <ele>96.41</ele>
        <time>2020-03-06T11:40:07Z</time>
      </trkpt>
      <trkpt lat="44.81022" lon="0.67146">
        <ele>96.608</ele>
        <time>2020-03-06T11:40:27Z</time>
      </trkpt>
      <trkpt lat="44.81106" lon="0.67157">
        <ele>93.729</ele>
        <time>2017-03-29T14:21:52Z</time>
      </trkpt>
      <trkpt lat="44.81251" lon="0.67157">
        <ele>87.014</ele>
        <time>2017-03-29T14:22:12Z</time>
      </trkpt>
      <trkpt lat="44.81307" lon="0.67163">
        <ele>83.124</ele>
        <time>2017-03-29T14:22:32Z</time>
      </trkpt>
      <trkpt lat="44.81367" lon="0.6714">
        <ele>74.316</ele>
        <time>2017-03-29T14:22:52Z</time>
      </trkpt>
      <trkpt lat="44.81405" lon="0.67139">
        <ele>69.098</ele>
        <time>2017-03-29T14:23:12Z</time>
      </trkpt>
      <trkpt lat="44.8146" lon="0.6716">
        <ele>60.369</ele>
        <time>2017-03-29T14:23:32Z</time>
      </trkpt>
      <trkpt lat="44.81386" lon="0.672">
        <ele>63.115</ele>
        <time>2017-03-29T14:23:52Z</time>
      </trkpt>
      <trkpt lat="44.81352" lon="0.67402">
        <ele>62.097</ele>
        <time>2017-03-29T14:24:12Z</time>
      </trkpt>
      <trkpt lat="44.81387" lon="0.67392">
        <ele>61.767</ele>
        <time>2020-03-06T11:43:27Z</time>
      </trkpt>
      <trkpt lat="44.81431" lon="0.67399">
        <ele>66.181</ele>
        <time>2020-03-06T11:43:47Z</time>
      </trkpt>
      <trkpt lat="44.81491" lon="0.67428">
        <ele>65.419</ele>
        <time>2020-03-06T11:44:07Z</time>
      </trkpt>
      <trkpt lat="44.81551" lon="0.67432">
        <ele>62.408</ele>
        <time>2020-03-06T11:44:27Z</time>
      </trkpt>
      <trkpt lat="44.81622" lon="0.67455">
        <ele>64.362</ele>
        <time>2020-03-06T11:44:47Z</time>
      </trkpt>
      <trkpt lat="44.81701" lon="0.67459">
        <ele>60.567</ele>
        <time>2020-03-06T11:45:07Z</time>
      </trkpt>
      <trkpt lat="44.81764" lon="0.67457">
        <ele>65.587</ele>
        <time>2017-03-29T14:26:52Z</time>
      </trkpt>
      <trkpt lat="44.81701" lon="0.67501">
        <ele>66.339</ele>
        <time>2017-03-29T14:27:12Z</time>
      </trkpt>
      <trkpt lat="44.81733" lon="0.67577">
        <ele>69.571</ele>
        <time>2020-03-06T11:46:07Z</time>
      </trkpt>
      <trkpt lat="44.81794" lon="0.67565">
        <ele>69.352</ele>
        <time>2020-03-06T11:46:27Z</time>
      </trkpt>
      <trkpt lat="44.81836" lon="0.67571">
        <ele>64.528</ele>
        <time>2020-03-06T11:46:47Z</time>
      </trkpt>
      <trkpt lat="44.81877" lon="0.67599">
        <ele>68.19</ele>
        <time>2020-03-06T11:47:07Z</time>
      </trkpt>
      <trkpt lat="44.82021" lon="0.67631">
        <ele>82.111</ele>
        <time>2020-03-06T11:47:27Z</time>
      </trkpt>
      <trkpt lat="44.82047" lon="0.67556">
        <ele>82.921</ele>
        <time>2020-03-06T11:47:47Z</time>
      </trkpt>
      <trkpt lat="44.82125" lon="0.67461">
        <ele>80.503</ele>
        <time>2020-03-06T11:48:07Z</time>
      </trkpt>
      <trkpt lat="44.82187" lon="0.67461">
        <ele>77.008</ele>
        <time>2020-03-06T11:48:27Z</time>
      </trkpt>
      <trkpt lat="44.82199" lon="0.67428">
        <ele>69.567</ele>
        <time>2020-03-06T11:48:47Z</time>
      </trkpt>
      <trkpt lat="44.82233" lon="0.67429">
        <ele>70.382</ele>
        <time>2020-03-06T11:49:07Z</time>
      </trkpt>
      <trkpt lat="44.82298" lon="0.67405">
        <ele>72.682</ele>
        <time>2020-03-06T11:49:27Z</time>
      </trkpt>
      <trkpt lat="44.82317" lon="0.67424">
        <ele>75.564</ele>
        <time>2020-03-06T11:49:47Z</time>
      </trkpt>
      <trkpt lat="44.82332" lon="0.67531">
        <ele>91.176</ele>
        <time>2017-03-29T14:30:52Z</time>
      </trkpt>
      <trkpt lat="44.82332" lon="0.67572">
        <ele>93.287</ele>
        <time>2017-03-29T14:31:12Z</time>
      </trkpt>
      <trkpt lat="44.82346" lon="0.67622">
        <ele>97.423</ele>
        <time>2017-03-29T14:31:32Z</time>
      </trkpt>
      <trkpt lat="44.82327" lon="0.67661">
        <ele>103.395</ele>
        <time>2017-03-29T14:31:52Z</time>
      </trkpt>
      <trkpt lat="44.82367" lon="0.67746">
        <ele>103.358</ele>
        <time>2017-03-29T14:32:12Z</time>
      </trkpt>
      <trkpt lat="44.82371" lon="0.67812">
        <ele>101.252</ele>
        <time>2017-03-29T14:32:32Z</time>
      </trkpt>
      <trkpt lat="44.82334" lon="0.67907">
        <ele>100.017</ele>
        <time>2017-03-29T14:32:52Z</time>
      </trkpt>
      <trkpt lat="44.82292" lon="0.68218">
        <ele>88.108</ele>
        <time>2017-03-29T14:33:12Z</time>
      </trkpt>
      <trkpt lat="44.82285" lon="0.68322">
        <ele>91.331</ele>
        <time>2017-03-29T14:33:32Z</time>
      </trkpt>
      <trkpt lat="44.82309" lon="0.68541">
        <ele>92.586</ele>
        <time>2017-03-29T14:33:52Z</time>
      </trkpt>
      <trkpt lat="44.82352" lon="0.68646">
        <ele>91.246</ele>
        <time>2017-03-29T14:34:12Z</time>
      </trkpt>
      <trkpt lat="44.82394" lon="0.68677">
        <ele>92.248</ele>
        <time>2017-03-29T14:34:32Z</time>
      </trkpt>
      <trkpt lat="44.82357" lon="0.68738">
        <ele>92.15</ele>
        <time>2017-03-29T14:34:52Z</time>
      </trkpt>
      <trkpt lat="44.82258" lon="0.68825">
        <ele>97.711</ele>
        <time>2017-03-29T14:35:12Z</time>
      </trkpt>
      <trkpt lat="44.82118" lon="0.6894">
        <ele>103.267</ele>
        <time>2017-03-29T14:35:32Z</time>
      </trkpt>
      <trkpt lat="44.82047" lon="0.68972">
        <ele>100.789</ele>
        <time>2017-03-29T14:35:52Z</time>
      </trkpt>
      <trkpt lat="44.8198" lon="0.69045">
        <ele>98.062</ele>
        <time>2017-03-29T14:36:12Z</time>
      </trkpt>
      <trkpt lat="44.81912" lon="0.69148">
        <ele>99.783</ele>
        <time>2017-03-29T14:36:32Z</time>
      </trkpt>
      <trkpt lat="44.81891" lon="0.69208">
        <ele>103.011</ele>
        <time>2017-03-29T14:36:52Z</time>
      </trkpt>
      <trkpt lat="44.81797" lon="0.69237">
        <ele>100.508</ele>
        <time>2017-03-29T14:37:12Z</time>
      </trkpt>
      <trkpt lat="44.81752" lon="0.69271">
        <ele>100.032</ele>
        <time>2017-03-29T14:37:32Z</time>
      </trkpt>
      <trkpt lat="44.81664" lon="0.6936">
        <ele>110.197</ele>
        <time>2017-03-29T14:37:52Z</time>
      </trkpt>
      <trkpt lat="44.81686" lon="0.69419">
        <ele>109.017</ele>
        <time>2017-03-29T14:38:12Z</time>
      </trkpt>
      <trkpt lat="44.81696" lon="0.69473">
        <ele>110.049</ele>
        <time>2017-03-29T14:38:32Z</time>
      </trkpt>
      <trkpt lat="44.8168" lon="0.69505">
        <ele>110.021</ele>
        <time>2017-03-29T14:38:52Z</time>
      </trkpt>
      <trkpt lat="44.81731" lon="0.69528">
        <ele>111.362</ele>
        <time>2017-03-29T14:39:12Z</time>
      </trkpt>
      <trkpt lat="44.81828" lon="0.69588">
        <ele>116.988</ele>
        <time>2017-03-29T14:39:32Z</time>
      </trkpt>
      <trkpt lat="44.81904" lon="0.69656">
        <ele>121.15</ele>
        <time>2017-03-29T14:39:52Z</time>
      </trkpt>
      <trkpt lat="44.81981" lon="0.69768">
        <ele>112.956</ele>
        <time>2017-03-29T14:40:12Z</time>
      </trkpt>
      <trkpt lat="44.82054" lon="0.69784">
        <ele>104.759</ele>
        <time>2017-03-29T14:40:32Z</time>
      </trkpt>
      <trkpt lat="44.82162" lon="0.69858">
        <ele>100.014</ele>
        <time>2017-03-29T14:40:52Z</time>
      </trkpt>
      <trkpt lat="44.8218" lon="0.70029">
        <ele>85.908</ele>
        <time>2017-03-29T14:41:12Z</time>
      </trkpt>
      <trkpt lat="44.82163" lon="0.7008">
        <ele>86.971</ele>
        <time>2017-03-29T14:41:32Z</time>
      </trkpt>
      <trkpt lat="44.82162" lon="0.70149">
        <ele>79.926</ele>
        <time>2017-03-29T14:41:52Z</time>
      </trkpt>
      <trkpt lat="44.82173" lon="0.70166">
        <ele>76.386</ele>
        <time>2017-03-29T14:42:12Z</time>
      </trkpt>
      <trkpt lat="44.82199" lon="0.70182">
        <ele>73.858</ele>
        <time>2017-03-29T14:42:32Z</time>
      </trkpt>
      <trkpt lat="44.82266" lon="0.70249">
        <ele>55.58</ele>
        <time>2017-03-29T14:42:52Z</time>
      </trkpt>
      <trkpt lat="44.82283" lon="0.70301">
        <ele>49.391</ele>
        <time>2017-03-29T14:43:12Z</time>
      </trkpt>
      <trkpt lat="44.82279" lon="0.70306">
        <ele>49.017</ele>
        <time>2017-03-29T14:43:32Z</time>
      </trkpt>
      <trkpt lat="44.82279" lon="0.70544">
        <ele>48.989</ele>
        <time>2017-03-29T14:43:52Z</time>
      </trkpt>
      <trkpt lat="44.82306" lon="0.7065">
        <ele>53.958</ele>
        <time>2017-03-29T14:44:12Z</time>
      </trkpt>
      <trkpt lat="44.82256" lon="0.70695">
        <ele>57.552</ele>
        <time>2017-03-29T14:44:32Z</time>
      </trkpt>
      <trkpt lat="44.82221" lon="0.70749">
        <ele>61.817</ele>
        <time>2017-03-29T14:44:52Z</time>
      </trkpt>
      <trkpt lat="44.82209" lon="0.70781">
        <ele>63.408</ele>
        <time>2017-03-29T14:45:12Z</time>
      </trkpt>
      <trkpt lat="44.82224" lon="0.70827">
        <ele>69.281</ele>
        <time>2017-03-29T14:45:32Z</time>
      </trkpt>
      <trkpt lat="44.82226" lon="0.70889">
        <ele>74.916</ele>
        <time>2017-03-29T14:45:52Z</time>
      </trkpt>
      <trkpt lat="44.82255" lon="0.71027">
        <ele>85.066</ele>
        <time>2017-03-29T14:46:12Z</time>
      </trkpt>
      <trkpt lat="44.82245" lon="0.71097">
        <ele>88.968</ele>
        <time>2017-03-29T14:46:32Z</time>
      </trkpt>
      <trkpt lat="44.82271" lon="0.71172">
        <ele>94.86</ele>
        <time>2017-03-29T14:46:52Z</time>
      </trkpt>
      <trkpt lat="44.82297" lon="0.71209">
        <ele>99.981</ele>
        <time>2017-03-29T14:47:12Z</time>
      </trkpt>
      <trkpt lat="44.82333" lon="0.71201">
        <ele>105.957</ele>
        <time>2017-03-29T14:47:32Z</time>
      </trkpt>
      <trkpt lat="44.82371" lon="0.71176">
        <ele>111.879</ele>
        <time>2017-03-29T14:47:52Z</time>
      </trkpt>
      <trkpt lat="44.82386" lon="0.71184">
        <ele>113.478</ele>
        <time>2017-03-29T14:48:12Z</time>
      </trkpt>
      <trkpt lat="44.82397" lon="0.71196">
        <ele>115.333</ele>
        <time>2017-03-29T14:48:32Z</time>
      </trkpt>
      <trkpt lat="44.82398" lon="0.71238">
        <ele>117.826</ele>
        <time>2017-03-29T14:48:52Z</time>
      </trkpt>
      <trkpt lat="44.8242" lon="0.71279">
        <ele>122.008</ele>
        <time>2017-03-29T14:49:12Z</time>
      </trkpt>
      <trkpt lat="44.82447" lon="0.71315">
        <ele>123.493</ele>
        <time>2017-03-29T14:49:32Z</time>
      </trkpt>
      <trkpt lat="44.82448" lon="0.71352">
        <ele>125.338</ele>
        <time>2017-03-29T14:49:52Z</time>
      </trkpt>
      <trkpt lat="44.82427" lon="0.71408">
        <ele>128.488</ele>
        <time>2017-03-29T14:50:12Z</time>
      </trkpt>
      <trkpt lat="44.82445" lon="0.71456">
        <ele>127.43</ele>
        <time>2017-03-29T14:50:32Z</time>
      </trkpt>
      <trkpt lat="44.82468" lon="0.71483">
        <ele>129.322</ele>
        <time>2017-03-29T14:50:52Z</time>
      </trkpt>
      <trkpt lat="44.82477" lon="0.71519">
        <ele>128.923</ele>
        <time>2017-03-29T14:51:12Z</time>
      </trkpt>
      <trkpt lat="44.82497" lon="0.71561">
        <ele>125.159</ele>
        <time>2017-03-29T14:51:32Z</time>
      </trkpt>
      <trkpt lat="44.82514" lon="0.71622">
        <ele>122.781</ele>
        <time>2017-03-29T14:51:52Z</time>
      </trkpt>
      <trkpt lat="44.82526" lon="0.71714">
        <ele>124.982</ele>
        <time>2017-03-29T14:52:12Z</time>
      </trkpt>
      <trkpt lat="44.82527" lon="0.71787">
        <ele>130.643</ele>
        <time>2017-03-29T14:52:32Z</time>
      </trkpt>
      <trkpt lat="44.82537" lon="0.71849">
        <ele>135.317</ele>
        <time>2017-03-29T14:52:52Z</time>
      </trkpt>
      <trkpt lat="44.82552" lon="0.71894">
        <ele>138.508</ele>
        <time>2017-03-29T14:53:12Z</time>
      </trkpt>
      <trkpt lat="44.82547" lon="0.71996">
        <ele>143.784</ele>
        <time>2017-03-29T14:53:32Z</time>
      </trkpt>
      <trkpt lat="44.8255" lon="0.72091">
        <ele>144.349</ele>
        <time>2017-03-29T14:53:52Z</time>
      </trkpt>
      <trkpt lat="44.82518" lon="0.72245">
        <ele>138.899</ele>
        <time>2017-03-29T14:54:12Z</time>
      </trkpt>
      <trkpt lat="44.82524" lon="0.72304">
        <ele>134.061</ele>
        <time>2017-03-29T14:54:32Z</time>
      </trkpt>
      <trkpt lat="44.82515" lon="0.72394">
        <ele>128.213</ele>
        <time>2017-03-29T14:54:52Z</time>
      </trkpt>
      <trkpt lat="44.8245" lon="0.72539">
        <ele>114.844</ele>
        <time>2020-03-06T12:14:27Z</time>
      </trkpt>
      <trkpt lat="44.82448" lon="0.72558">
        <ele>113.99</ele>
        <time>2020-03-06T12:14:47Z</time>
      </trkpt>
      <trkpt lat="44.82422" lon="0.72579">
        <ele>110.512</ele>
        <time>2020-03-06T12:15:07Z</time>
      </trkpt>
      <trkpt lat="44.82402" lon="0.72625">
        <ele>106.917</ele>
        <time>2020-03-06T12:15:27Z</time>
      </trkpt>
      <trkpt lat="44.82397" lon="0.7265">
        <ele>105.287</ele>
        <time>2020-03-06T12:15:47Z</time>
      </trkpt>
      <trkpt lat="44.82404" lon="0.72677">
        <ele>103.415</ele>
        <time>2020-03-06T12:16:07Z</time>
      </trkpt>
      <trkpt lat="44.82424" lon="0.72701">
        <ele>103.408</ele>
        <time>2020-03-06T12:16:27Z</time>
      </trkpt>
      <trkpt lat="44.82476" lon="0.72729">
        <ele>100.997</ele>
        <time>2020-03-06T12:16:47Z</time>
      </trkpt>
      <trkpt lat="44.82516" lon="0.72765">
        <ele>97.232</ele>
        <time>2020-03-06T12:17:07Z</time>
      </trkpt>
      <trkpt lat="44.82526" lon="0.72789">
        <ele>96.642</ele>
        <time>2020-03-06T12:17:27Z</time>
      </trkpt>
      <trkpt lat="44.82547" lon="0.72782">
        <ele>94.764</ele>
        <time>2020-03-06T12:17:47Z</time>
      </trkpt>
      <trkpt lat="44.82568" lon="0.72804">
        <ele>92.316</ele>
        <time>2020-03-06T12:18:07Z</time>
      </trkpt>
      <trkpt lat="44.82584" lon="0.72839">
        <ele>91.577</ele>
        <time>2020-03-06T12:18:27Z</time>
      </trkpt>
      <trkpt lat="44.82624" lon="0.72856">
        <ele>91.793</ele>
        <time>2020-03-06T12:18:47Z</time>
      </trkpt>
      <trkpt lat="44.82646" lon="0.72896">
        <ele>99.185</ele>
        <time>2020-03-06T12:19:07Z</time>
      </trkpt>
      <trkpt lat="44.82684" lon="0.72947">
        <ele>104.934</ele>
        <time>2020-03-06T12:19:27Z</time>
      </trkpt>
      <trkpt lat="44.82686" lon="0.72965">
        <ele>106.955</ele>
        <time>2020-03-06T12:19:47Z</time>
      </trkpt>
      <trkpt lat="44.82745" lon="0.73056">
        <ele>104.11</ele>
        <time>2017-03-29T14:57:52Z</time>
      </trkpt>
      <trkpt lat="44.82744" lon="0.7308">
        <ele>106.008</ele>
        <time>2017-03-29T14:58:12Z</time>
      </trkpt>
      <trkpt lat="44.82715" lon="0.73129">
        <ele>113.099</ele>
        <time>2017-03-29T14:58:32Z</time>
      </trkpt>
      <trkpt lat="44.82715" lon="0.73157">
        <ele>114.064</ele>
        <time>2017-03-29T14:58:52Z</time>
      </trkpt>
      <trkpt lat="44.8275" lon="0.73333">
        <ele>121.014</ele>
        <time>2017-03-29T14:59:12Z</time>
      </trkpt>
      <trkpt lat="44.82755" lon="0.73383">
        <ele>125.716</ele>
        <time>2017-03-29T14:59:32Z</time>
      </trkpt>
      <trkpt lat="44.82765" lon="0.73409">
        <ele>124.788</ele>
        <time>2017-03-29T14:59:52Z</time>
      </trkpt>
      <trkpt lat="44.8289" lon="0.73363">
        <ele>117.719</ele>
        <time>2017-03-29T15:00:12Z</time>
      </trkpt>
      <trkpt lat="44.82936" lon="0.73333">
        <ele>122.115</ele>
        <time>2017-03-29T15:00:32Z</time>
      </trkpt>
      <trkpt lat="44.83013" lon="0.73248">
        <ele>125.947</ele>
        <time>2017-03-29T15:00:52Z</time>
      </trkpt>
      <trkpt lat="44.83032" lon="0.73299">
        <ele>123.562</ele>
        <time>2017-03-29T15:01:12Z</time>
      </trkpt>
      <trkpt lat="44.8306" lon="0.73365">
        <ele>120.683</ele>
        <time>2017-03-29T15:01:32Z</time>
      </trkpt>
      <trkpt lat="44.83077" lon="0.73391">
        <ele>120.611</ele>
        <time>2017-03-29T15:01:52Z</time>
      </trkpt>
      <trkpt lat="44.83123" lon="0.73503">
        <ele>122.608</ele>
        <time>2017-03-29T15:02:12Z</time>
      </trkpt>
      <trkpt lat="44.83128" lon="0.73526">
        <ele>122.432</ele>
        <time>2017-03-29T15:02:32Z</time>
      </trkpt>
      <trkpt lat="44.83128" lon="0.73548">
        <ele>121.757</ele>
        <time>2017-03-29T15:02:52Z</time>
      </trkpt>
      <trkpt lat="44.83165" lon="0.73603">
        <ele>116.797</ele>
        <time>2017-03-29T15:03:12Z</time>
      </trkpt>
      <trkpt lat="44.83175" lon="0.73655">
        <ele>110.529</ele>
        <time>2017-03-29T15:03:32Z</time>
      </trkpt>
      <trkpt lat="44.83199" lon="0.73745">
        <ele>102.651</ele>
        <time>2017-03-29T15:03:52Z</time>
      </trkpt>
      <trkpt lat="44.8321" lon="0.73763">
        <ele>99.922</ele>
        <time>2017-03-29T15:04:12Z</time>
      </trkpt>
      <trkpt lat="44.83237" lon="0.7383">
        <ele>96.078</ele>
        <time>2017-03-29T15:04:32Z</time>
      </trkpt>
      <trkpt lat="44.83254" lon="0.73919">
        <ele>92.75</ele>
        <time>2017-03-29T15:04:52Z</time>
      </trkpt>
      <trkpt lat="44.83275" lon="0.73957">
        <ele>94.831</ele>
        <time>2017-03-29T15:05:12Z</time>
      </trkpt>
      <trkpt lat="44.83289" lon="0.73956">
        <ele>95.861</ele>
        <time>2017-03-29T15:05:32Z</time>
      </trkpt>
      <trkpt lat="44.83302" lon="0.73997">
        <ele>93.207</ele>
        <time>2017-03-29T15:05:52Z</time>
      </trkpt>
      <trkpt lat="44.83357" lon="0.74065">
        <ele>58.208</ele>
        <time>2017-03-29T15:06:12Z</time>
      </trkpt>
      <trkpt lat="44.83366" lon="0.74047">
        <ele>53.739</ele>
        <time>2017-03-29T15:06:32Z</time>
      </trkpt>
      <trkpt lat="44.836" lon="0.73995">
        <ele>43.644</ele>
        <time>2017-03-29T15:06:52Z</time>
      </trkpt>
      <trkpt lat="44.83608" lon="0.74024">
        <ele>43.974</ele>
        <time>2017-03-29T15:07:12Z</time>
      </trkpt>
      <trkpt lat="44.83716" lon="0.74045">
        <ele>45.066</ele>
        <time>2017-03-29T15:07:32Z</time>
      </trkpt>
      <trkpt lat="44.83738" lon="0.74042">
        <ele>44.418</ele>
        <time>2017-03-29T15:07:52Z</time>
      </trkpt>
      <trkpt lat="44.83765" lon="0.74051">
        <ele>43.559</ele>
        <time>2017-03-29T15:08:12Z</time>
      </trkpt>
      <trkpt lat="44.8386" lon="0.74053">
        <ele>45.095</ele>
        <time>2017-03-29T15:08:32Z</time>
      </trkpt>
      <trkpt lat="44.83851" lon="0.74128">
        <ele>46.097</ele>
        <time>2017-03-29T15:08:52Z</time>
      </trkpt>
      <trkpt lat="44.83792" lon="0.74307">
        <ele>48.539</ele>
        <time>2017-03-29T15:09:12Z</time>
      </trkpt>
      <trkpt lat="44.83777" lon="0.7438">
        <ele>47.701</ele>
        <time>2017-03-29T15:09:32Z</time>
      </trkpt>
      <trkpt lat="44.83777" lon="0.7438">
        <ele>47.701</ele>
        <time>2017-03-29T15:09:32Z</time>
      </trkpt>
      <trkpt lat="44.83777" lon="0.7438">
        <ele>47.701</ele>
        <time>2017-03-29T15:09:32Z</time>
      </trkpt>
      <trkpt lat="44.83777" lon="0.7438">
        <ele>47.701</ele>
        <time>2017-03-29T15:09:32Z</time>
      </trkpt>
      <trkpt lat="44.83777" lon="0.7438">
        <ele>47.701</ele>
        <time>2017-03-29T15:09:32Z</time>
      </trkpt>
      <trkpt lat="44.83777" lon="0.7438">
        <ele>47.701</ele>
        <time>2017-03-29T15:09:32Z</time>
      </trkpt>
      <trkpt lat="44.83777" lon="0.7447">
        <ele>45.021</ele>
        <time>2017-03-29T15:09:52Z</time>
      </trkpt>
      <trkpt lat="44.83951" lon="0.75665">
        <ele>43.408</ele>
        <time>2017-03-29T15:10:12Z</time>
      </trkpt>
      <trkpt lat="44.84035" lon="0.76107">
        <ele>44.729</ele>
        <time>2017-03-29T15:10:32Z</time>
      </trkpt>
      <trkpt lat="44.84049" lon="0.76158">
        <ele>46.344</ele>
        <time>2017-03-29T15:10:52Z</time>
      </trkpt>
      <trkpt lat="44.8407" lon="0.76198">
        <ele>46.094</ele>
        <time>2017-03-29T15:11:12Z</time>
      </trkpt>
      <trkpt lat="44.84119" lon="0.76253">
        <ele>46.276</ele>
        <time>2017-03-29T15:11:32Z</time>
      </trkpt>
      <trkpt lat="44.84156" lon="0.76311">
        <ele>46.138</ele>
        <time>2017-03-29T15:11:52Z</time>
      </trkpt>
      <trkpt lat="44.84177" lon="0.76386">
        <ele>46.449</ele>
        <time>2017-03-29T15:12:12Z</time>
      </trkpt>
      <trkpt lat="44.84304" lon="0.77021">
        <ele>47.985</ele>
        <time>2017-03-29T15:12:32Z</time>
      </trkpt>
      <trkpt lat="44.84305" lon="0.77101">
        <ele>49.337</ele>
        <time>2017-03-29T15:12:52Z</time>
      </trkpt>
      <trkpt lat="44.84288" lon="0.77189">
        <ele>46.731</ele>
        <time>2017-03-29T15:13:12Z</time>
      </trkpt>
      <trkpt lat="44.8429" lon="0.77244">
        <ele>48.161</ele>
        <time>2017-03-29T15:13:32Z</time>
      </trkpt>
      <trkpt lat="44.8455" lon="0.78479">
        <ele>45.007</ele>
        <time>2017-03-29T15:13:52Z</time>
      </trkpt>
      <trkpt lat="44.84567" lon="0.78541">
        <ele>45.908</ele>
        <time>2017-03-29T15:14:12Z</time>
      </trkpt>
      <trkpt lat="44.84539" lon="0.78558">
        <ele>47.189</ele>
        <time>2017-03-29T15:14:32Z</time>
      </trkpt>
      <trkpt lat="44.84563" lon="0.78671">
        <ele>44.974</ele>
        <time>2017-03-29T15:14:52Z</time>
      </trkpt>
      <trkpt lat="44.84598" lon="0.78797">
        <ele>44.314</ele>
        <time>2017-03-29T15:15:12Z</time>
      </trkpt>
      <trkpt lat="44.84626" lon="0.78876">
        <ele>45.876</ele>
        <time>2017-03-29T15:15:32Z</time>
      </trkpt>
      <trkpt lat="44.84658" lon="0.78939">
        <ele>46.078</ele>
        <time>2017-03-29T15:15:52Z</time>
      </trkpt>
      <trkpt lat="44.84698" lon="0.79">
        <ele>45.949</ele>
        <time>2017-03-29T15:16:12Z</time>
      </trkpt>
      <trkpt lat="44.85234" lon="0.79623">
        <ele>45.445</ele>
        <time>2017-03-29T15:16:32Z</time>
      </trkpt>
      <trkpt lat="44.85364" lon="0.79775">
        <ele>46.527</ele>
        <time>2017-03-29T15:16:52Z</time>
      </trkpt>
      <trkpt lat="44.85442" lon="0.7984">
        <ele>45.121</ele>
        <time>2017-03-29T15:17:12Z</time>
      </trkpt>
      <trkpt lat="44.85521" lon="0.79885">
        <ele>45.841</ele>
        <time>2017-03-29T15:17:32Z</time>
      </trkpt>
      <trkpt lat="44.85606" lon="0.79911">
        <ele>46.005</ele>
        <time>2017-03-29T15:17:52Z</time>
      </trkpt>
      <trkpt lat="44.85793" lon="0.79932">
        <ele>45.808</ele>
        <time>2017-03-29T15:18:12Z</time>
      </trkpt>
      <trkpt lat="44.86228" lon="0.79977">
        <ele>41.488</ele>
        <time>2017-03-29T15:18:32Z</time>
      </trkpt>
      <trkpt lat="44.86232" lon="0.79928">
        <ele>46.263</ele>
        <time>2017-03-29T15:18:52Z</time>
      </trkpt>
      <trkpt lat="44.8625" lon="0.79936">
        <ele>45.613</ele>
        <time>2017-03-29T15:19:12Z</time>
      </trkpt>
      <trkpt lat="44.86339" lon="0.7994">
        <ele>46.995</ele>
        <time>2017-03-29T15:19:32Z</time>
      </trkpt>
      <trkpt lat="44.86515" lon="0.79878">
        <ele>44.447</ele>
        <time>2017-03-29T15:19:52Z</time>
      </trkpt>
      <trkpt lat="44.8653" lon="0.79866">
        <ele>44.048</ele>
        <time>2017-03-29T15:20:12Z</time>
      </trkpt>
      <trkpt lat="44.86536" lon="0.79833">
        <ele>48.054</ele>
        <time>2017-03-29T15:20:32Z</time>
      </trkpt>
      <trkpt lat="44.86578" lon="0.79743">
        <ele>54.026</ele>
        <time>2017-03-29T15:20:52Z</time>
      </trkpt>
      <trkpt lat="44.86547" lon="0.79706">
        <ele>60.795</ele>
        <time>2017-03-29T15:21:12Z</time>
      </trkpt>
      <trkpt lat="44.86487" lon="0.79642">
        <ele>62.149</ele>
        <time>2017-03-29T15:21:32Z</time>
      </trkpt>
      <trkpt lat="44.86471" lon="0.79579">
        <ele>63.523</ele>
        <time>2017-03-29T15:21:52Z</time>
      </trkpt>
    </trkseg>
  </trk>
</gpx>